Time;durP1;ratioP1;P1;durP2;ratioP2;P2;SDS_P1;SDS_P2;PMS_P1;PMS_P2;Temp;Humidity;BMP_temperature;BMP_pressure;BME280_temperature;BME280_humidity;BME280_pressure;Samples;Min_cycle;Max_cycle;Signal;HPM_P1;HPM_P2
2023/05/11 00:02:22;;;;;;;1.70;1.57;;;21.20;63.70;;;;;;5090642;28;20246;-44
2023/05/11 00:04:52;;;;;;;1.50;1.40;;;21.20;63.80;;;;;;5090623;28;20233;-44
2023/05/11 00:07:25;;;;;;;2.13;1.40;;;21.20;63.70;;;;;;5090275;28;20205;-44
2023/05/11 00:09:52;;;;;;;2.20;1.50;;;21.20;63.80;;;;;;5088854;28;20216;-44
2023/05/11 00:12:22;;;;;;;1.40;1.30;;;21.20;63.80;;;;;;5082427;28;20198;-44
2023/05/11 00:14:54;;;;;;;1.53;1.40;;;21.20;63.80;;;;;;5086601;28;20619;-44
2023/05/11 00:17:23;;;;;;;1.70;1.10;;;21.20;63.80;;;;;;5091355;28;20691;-44
2023/05/11 00:19:58;;;;;;;1.93;1.60;;;21.20;63.80;;;;;;5078973;28;20208;-44
2023/05/11 00:22:29;;;;;;;2.80;1.70;;;21.10;63.80;;;;;;5090746;28;20205;-44
2023/05/11 00:25:03;;;;;;;2.10;1.90;;;21.20;63.90;;;;;;5090707;28;20228;-44
2023/05/11 00:27:35;;;;;;;1.83;1.50;;;21.10;63.90;;;;;;5090669;28;20196;-44
2023/05/11 00:30:04;;;;;;;1.47;1.37;;;21.20;63.90;;;;;;5088759;28;20547;-45
2023/05/11 00:32:33;;;;;;;1.97;1.20;;;21.10;63.90;;;;;;5087084;28;20217;-44
2023/05/11 00:35:05;;;;;;;1.30;1.17;;;21.10;63.90;;;;;;5086505;28;20217;-44
2023/05/11 00:37:37;;;;;;;1.70;1.60;;;21.10;64.50;;;;;;5087003;28;20216;-44
2023/05/11 00:40:09;;;;;;;4.47;1.70;;;21.10;63.90;;;;;;5073068;28;20197;-44
2023/05/11 00:42:41;;;;;;;1.60;1.50;;;21.10;63.90;;;;;;5087396;28;20279;-44
2023/05/11 00:45:13;;;;;;;2.57;1.57;;;21.10;63.90;;;;;;5084771;28;20225;-44
2023/05/11 00:47:45;;;;;;;1.20;1.10;;;21.00;63.90;;;;;;5085143;28;20198;-44
2023/05/11 00:50:14;;;;;;;1.60;1.50;;;21.00;64.00;;;;;;5080915;28;20555;-44
2023/05/11 00:52:46;;;;;;;1.27;1.17;;;21.00;64.00;;;;;;5087323;28;20247;-44
2023/05/11 00:55:24;;;;;;;1.60;1.50;;;21.00;64.00;;;;;;5079843;28;20185;-44
2023/05/11 00:57:54;;;;;;;1.93;1.73;;;21.00;64.00;;;;;;5084462;28;20517;-44
2023/05/11 01:00:23;;;;;;;1.50;1.40;;;21.00;64.00;;;;;;5079150;28;20204;-44
2023/05/11 01:02:53;;;;;;;1.43;1.33;;;21.00;64.00;;;;;;5077872;28;20200;-44
2023/05/11 01:05:57;;;;;;;2.07;1.50;;;21.00;64.10;;;;;;5084113;28;20209;-44
2023/05/11 01:08:45;;;;;;;1.70;1.37;;;21.00;64.10;;;;;;5086788;28;20281;-44
2023/05/11 01:11:48;;;;;;;1.50;1.40;;;21.00;64.10;;;;;;5095792;28;20198;-44
2023/05/11 01:14:33;;;;;;;1.50;1.40;;;21.00;64.20;;;;;;5079089;28;20201;-44
2023/05/11 01:17:09;;;;;;;1.57;1.47;;;20.90;64.10;;;;;;5077632;28;20198;-44
2023/05/11 01:20:11;;;;;;;1.47;1.37;;;21.00;64.20;;;;;;5071912;28;20180;-44
2023/05/11 01:23:40;;;;;;;1.67;1.47;;;20.90;64.10;;;;;;5083215;28;20188;-43
2023/05/11 01:27:02;;;;;;;1.80;1.70;;;20.90;64.10;;;;;;5090835;28;20219;-44
2023/05/11 01:29:56;;;;;;;1.83;1.60;;;20.90;64.20;;;;;;5082034;28;20227;-44
2023/05/11 01:32:32;;;;;;;2.57;1.77;;;20.90;64.20;;;;;;5088273;28;20217;-43
2023/05/11 01:35:08;;;;;;;1.73;1.30;;;20.90;64.20;;;;;;5078422;28;20215;-44
2023/05/11 01:37:54;;;;;;;2.20;1.40;;;20.90;64.20;;;;;;5089503;28;20189;-48
2023/05/11 01:40:28;;;;;;;1.73;1.63;;;20.90;64.20;;;;;;5090523;28;20197;-44
2023/05/11 01:43:04;;;;;;;1.60;1.50;;;20.90;64.20;;;;;;5089286;28;20192;-44
2023/05/11 01:45:38;;;;;;;1.90;1.70;;;20.90;64.20;;;;;;5087468;28;20232;-43
2023/05/11 01:48:15;;;;;;;1.60;1.50;;;20.90;64.20;;;;;;5086109;28;20193;-43
2023/05/11 01:50:44;;;;;;;2.13;1.27;;;20.90;64.20;;;;;;5088749;28;20200;-44
2023/05/11 01:53:21;;;;;;;1.90;1.70;;;20.90;64.20;;;;;;5090300;28;20549;-44
2023/05/11 01:56:04;;;;;;;2.27;1.80;;;20.90;64.20;;;;;;5072483;28;20270;-44
2023/05/11 01:58:41;;;;;;;2.17;1.80;;;20.80;64.10;;;;;;5087330;28;20200;-44
2023/05/11 02:01:13;;;;;;;2.47;1.67;;;20.80;64.10;;;;;;5078598;28;20266;-44
2023/05/11 02:03:48;;;;;;;1.87;1.50;;;20.80;64.10;;;;;;5088662;28;20200;-44
2023/05/11 02:06:25;;;;;;;2.03;1.60;;;20.80;64.10;;;;;;5082216;28;20213;-44
2023/05/11 02:09:00;;;;;;;2.17;2.00;;;20.80;64.10;;;;;;5084214;28;20639;-44
2023/05/11 02:11:33;;;;;;;1.90;1.80;;;20.90;64.10;;;;;;5088897;28;20207;-44
2023/05/11 02:14:07;;;;;;;1.90;1.80;;;20.80;64.10;;;;;;5085837;28;20220;-44
2023/05/11 02:16:40;;;;;;;2.20;2.00;;;20.80;64.10;;;;;;5089933;28;20200;-44
2023/05/11 02:19:12;;;;;;;3.80;2.00;;;20.80;64.00;;;;;;5087943;28;20674;-44
2023/05/11 02:21:47;;;;;;;3.17;2.40;;;20.80;64.00;;;;;;5087150;28;20201;-44
2023/05/11 02:24:20;;;;;;;2.00;1.80;;;20.80;64.00;;;;;;5085874;28;20774;-44
2023/05/11 02:26:56;;;;;;;2.33;1.80;;;20.80;64.60;;;;;;5087848;28;20216;-44
2023/05/11 02:29:26;;;;;;;2.00;1.87;;;20.80;64.00;;;;;;5088498;28;20197;-44
2023/05/11 02:32:05;;;;;;;2.20;2.00;;;20.80;64.00;;;;;;5087235;28;20228;-44
2023/05/11 02:34:45;;;;;;;2.37;1.80;;;20.80;64.00;;;;;;5081334;28;20188;-44
2023/05/11 02:37:22;;;;;;;3.23;2.23;;;20.80;64.00;;;;;;5088971;28;20225;-43
2023/05/11 02:40:08;;;;;;;2.40;2.20;;;20.80;64.00;;;;;;5089095;28;20210;-43
2023/05/11 02:42:44;;;;;;;2.00;1.83;;;20.80;64.00;;;;;;5090006;28;20196;-45
2023/05/11 02:45:15;;;;;;;2.80;1.87;;;20.80;64.00;;;;;;5086912;28;20766;-44
2023/05/11 02:47:52;;;;;;;2.30;2.10;;;20.80;64.10;;;;;;5088714;28;20193;-44
2023/05/11 02:50:34;;;;;;;2.40;2.13;;;20.80;64.10;;;;;;5077540;28;20216;-44
2023/05/11 02:53:16;;;;;;;2.30;2.10;;;20.80;64.10;;;;;;5081071;28;20220;-44
2023/05/11 02:55:47;;;;;;;2.93;2.40;;;20.80;64.10;;;;;;5086469;28;20207;-44
2023/05/11 02:58:17;;;;;;;2.50;2.30;;;20.80;64.10;;;;;;5073809;28;20204;-44
2023/05/11 03:00:50;;;;;;;2.17;1.97;;;20.80;64.10;;;;;;5087653;28;20514;-44
2023/05/11 03:03:22;;;;;;;3.47;2.00;;;20.70;64.00;;;;;;5089139;28;20193;-44
2023/05/11 03:05:52;;;;;;;4.00;2.47;;;20.80;64.10;;;;;;5086990;28;20212;-44
2023/05/11 03:08:22;;;;;;;2.30;2.10;;;20.70;64.00;;;;;;5085403;28;20837;-44
2023/05/11 03:10:52;;;;;;;2.20;1.97;;;20.70;64.00;;;;;;5088882;28;20551;-44
2023/05/11 03:13:26;;;;;;;2.90;2.30;;;20.70;64.00;;;;;;5081468;28;20635;-44
2023/05/11 03:16:01;;;;;;;2.87;2.67;;;20.70;64.00;;;;;;5083444;28;20195;-44
2023/05/11 03:18:50;;;;;;;3.03;2.60;;;20.70;64.00;;;;;;5083833;28;20201;-44
2023/05/11 03:21:23;;;;;;;2.70;2.30;;;20.70;64.00;;;;;;5073801;28;20205;-44
2023/05/11 03:23:57;;;;;;;3.87;2.60;;;20.70;64.10;;;;;;5078014;28;20228;-44
2023/05/11 03:26:27;;;;;;;3.93;2.60;;;20.70;64.10;;;;;;5083301;28;20337;-45
2023/05/11 03:28:59;;;;;;;2.67;2.43;;;20.70;64.00;;;;;;5083132;28;20189;-44
2023/05/11 03:31:30;;;;;;;2.83;2.40;;;20.70;64.00;;;;;;5083387;28;20255;-44
2023/05/11 03:34:04;;;;;;;2.60;2.40;;;20.70;64.10;;;;;;5078856;28;20642;-44
2023/05/11 03:36:40;;;;;;;2.70;2.37;;;20.70;64.10;;;;;;5083837;28;20338;-44
2023/05/11 03:39:11;;;;;;;2.53;2.30;;;20.70;64.10;;;;;;5088199;28;20192;-44
2023/05/11 03:41:48;;;;;;;2.60;2.40;;;20.70;64.20;;;;;;5042065;28;20433;-44
2023/05/11 03:44:20;;;;;;;3.10;2.80;;;20.70;64.10;;;;;;5077941;28;20348;-44
2023/05/11 03:46:51;;;;;;;3.47;2.83;;;20.70;64.10;;;;;;5078038;28;20638;-44
2023/05/11 03:49:19;;;;;;;2.57;2.37;;;20.70;64.10;;;;;;5080447;28;20570;-44
2023/05/11 03:51:48;;;;;;;2.80;2.47;;;20.70;64.00;;;;;;5079619;28;20227;-44
2023/05/11 03:54:20;;;;;;;4.07;2.80;;;20.70;64.00;;;;;;5070875;28;20186;-44
2023/05/11 03:56:52;;;;;;;3.60;2.70;;;20.70;64.10;;;;;;5084457;28;20293;-43
2023/05/11 03:59:21;;;;;;;2.67;2.47;;;20.70;64.00;;;;;;5079576;28;20263;-44
2023/05/11 04:01:55;;;;;;;3.43;2.33;;;20.70;64.00;;;;;;5091189;28;20201;-43
2023/05/11 04:04:58;;;;;;;3.17;2.87;;;20.70;63.90;;;;;;5079052;28;20209;-43
2023/05/11 04:07:31;;;;;;;3.00;2.70;;;20.60;63.90;;;;;;5080470;28;20624;-43
2023/05/11 04:10:00;;;;;;;3.37;2.50;;;20.70;64.00;;;;;;5069339;28;20196;-43
2023/05/11 04:12:32;;;;;;;2.80;2.60;;;20.60;63.90;;;;;;5041346;28;20583;-44
2023/05/11 04:15:05;;;;;;;4.50;2.80;;;20.60;63.90;;;;;;5084608;28;20185;-43
2023/05/11 04:17:34;;;;;;;3.37;2.60;;;20.70;64.00;;;;;;5072298;28;20189;-44
2023/05/11 04:20:07;;;;;;;2.70;2.50;;;20.70;63.90;;;;;;5089535;28;20201;-44
2023/05/11 04:22:38;;;;;;;3.17;2.87;;;20.60;63.80;;;;;;5071126;28;20185;-44
2023/05/11 04:25:07;;;;;;;3.27;2.97;;;20.60;63.80;;;;;;5046620;28;20694;-44
2023/05/11 04:27:38;;;;;;;2.90;2.70;;;20.60;63.80;;;;;;5045190;28;20221;-44
2023/05/11 04:30:09;;;;;;;4.47;2.90;;;20.70;63.90;;;;;;5064942;28;20210;-43
2023/05/11 04:32:40;;;;;;;4.30;3.07;;;20.60;63.80;;;;;;5065146;28;20224;-45
2023/05/11 04:35:11;;;;;;;4.27;2.93;;;20.60;63.80;;;;;;5054236;28;20209;-42
2023/05/11 04:37:45;;;;;;;4.30;3.03;;;20.70;63.80;;;;;;5071495;28;20193;-43
2023/05/11 04:40:16;;;;;;;3.00;2.70;;;20.60;63.80;;;;;;5066783;28;20822;-43
2023/05/11 04:42:48;;;;;;;3.27;2.70;;;20.60;63.80;;;;;;5071352;28;20197;-45
2023/05/11 04:45:19;;;;;;;4.60;3.07;;;20.60;63.80;;;;;;5068073;28;20217;-44
2023/05/11 04:47:51;;;;;;;3.73;3.00;;;20.60;63.80;;;;;;5069944;28;20247;-44
2023/05/11 04:50:20;;;;;;;3.10;2.80;;;20.60;63.80;;;;;;5052130;28;20277;-44
2023/05/11 04:52:50;;;;;;;3.17;2.87;;;20.60;63.70;;;;;;5071439;28;20201;-44
2023/05/11 04:55:21;;;;;;;7.87;3.50;;;20.60;63.90;;;;;;5070265;28;20201;-44
2023/05/11 04:57:49;;;;;;;7.10;3.77;;;20.60;64.60;;;;;;5065165;28;20237;-44
2023/05/11 05:00:20;;;;;;;6.37;4.17;;;20.70;64.60;;;;;;5067890;28;20185;-43
2023/05/11 05:02:50;;;;;;;6.27;3.47;;;20.60;64.50;;;;;;5066666;28;20273;-44
2023/05/11 05:05:21;;;;;;;5.97;3.83;;;20.60;64.40;;;;;;5053920;28;20209;-43
2023/05/11 05:07:53;;;;;;;4.03;3.50;;;20.60;64.30;;;;;;5058623;28;20190;-44
2023/05/11 05:10:20;;;;;;;5.90;3.77;;;20.60;64.30;;;;;;5063508;28;20205;-44
2023/05/11 05:12:49;;;;;;;4.50;3.83;;;20.60;64.30;;;;;;5051032;28;20197;-44
2023/05/11 05:15:23;;;;;;;6.53;3.57;;;20.70;64.20;;;;;;5069836;28;20201;-44
2023/05/11 05:17:54;;;;;;;7.27;4.00;;;20.60;64.20;;;;;;5058468;28;20255;-44
2023/05/11 05:20:27;;;;;;;5.77;4.37;;;20.60;64.10;;;;;;5067773;28;20635;-43
2023/05/11 05:22:59;;;;;;;6.40;4.60;;;20.60;64.10;;;;;;5080649;28;20194;-43
2023/05/11 05:25:30;;;;;;;5.40;4.10;;;20.60;64.00;;;;;;5088549;28;20217;-43
2023/05/11 05:28:13;;;;;;;4.77;4.17;;;20.60;64.00;;;;;;5087875;28;20228;-50
2023/05/11 05:30:43;;;;;;;6.93;4.33;;;20.60;64.00;;;;;;5091118;28;20200;-43
2023/05/11 05:33:14;;;;;;;6.97;4.73;;;20.60;63.90;;;;;;5078498;28;20217;-43
2023/05/11 05:35:51;;;;;;;7.07;4.50;;;20.60;63.90;;;;;;5090205;28;20220;-43
2023/05/11 05:38:19;;;;;;;7.13;4.47;;;20.60;63.90;;;;;;5086911;28;20192;-43
2023/05/11 05:40:50;;;;;;;6.80;4.33;;;20.60;63.90;;;;;;5083640;28;20197;-43
2023/05/11 05:43:20;;;;;;;10.70;6.03;;;20.60;63.90;;;;;;5069377;28;20197;-44
2023/05/11 05:45:51;;;;;;;11.77;6.20;;;20.60;64.50;;;;;;5078409;28;20193;-44
2023/05/11 05:48:21;;;;;;;11.83;6.37;;;20.60;64.70;;;;;;5090220;28;20205;-44
2023/05/11 05:50:51;;;;;;;16.80;6.27;;;20.60;64.70;;;;;;5085324;28;20197;-43
2023/05/11 05:53:22;;;;;;;14.33;7.60;;;20.60;64.80;;;;;;5089800;28;20575;-43
2023/05/11 05:55:55;;;;;;;13.17;7.57;;;20.60;65.30;;;;;;5078093;28;20190;-44
2023/05/11 05:58:24;;;;;;;13.97;7.47;;;20.60;65.50;;;;;;5074534;28;20216;-43
2023/05/11 06:00:53;;;;;;;17.20;8.90;;;20.60;65.30;;;;;;5085417;28;20205;-43
2023/05/11 06:03:25;;;;;;;13.47;8.20;;;20.60;65.30;;;;;;5076004;28;20224;-43
2023/05/11 06:05:57;;;;;;;20.20;9.37;;;20.60;65.20;;;;;;5086631;28;20748;-43
2023/05/11 06:08:26;;;;;;;12.77;8.83;;;20.60;65.10;;;;;;5082915;28;20201;-44
2023/05/11 06:10:59;;;;;;;20.60;9.63;;;20.70;65.10;;;;;;5076404;28;20205;-44
2023/05/11 06:13:28;;;;;;;13.87;8.63;;;20.60;64.90;;;;;;5078003;28;20193;-44
2023/05/11 06:15:58;;;;;;;13.90;8.63;;;20.60;64.80;;;;;;5078586;28;20687;-44
2023/05/11 06:18:27;;;;;;;12.00;8.50;;;20.60;64.70;;;;;;5088525;28;20201;-43
2023/05/11 06:20:58;;;;;;;14.73;9.33;;;20.70;64.70;;;;;;5084242;28;20216;-43
2023/05/11 06:23:28;;;;;;;15.07;9.20;;;20.60;64.60;;;;;;5068854;28;20248;-43
2023/05/11 06:25:56;;;;;;;15.37;9.33;;;20.60;64.50;;;;;;5083970;28;20190;-44
2023/05/11 06:28:29;;;;;;;13.37;9.57;;;20.60;64.40;;;;;;5074635;28;20783;-43
2023/05/11 06:30:58;;;;;;;12.73;8.77;;;20.60;64.30;;;;;;5074178;28;20216;-44
2023/05/11 06:33:30;;;;;;;13.03;8.63;;;20.60;64.30;;;;;;5064675;28;20208;-44
2023/05/11 06:36:04;;;;;;;11.83;8.57;;;20.60;64.50;;;;;;5077552;28;20554;-44
2023/05/11 06:38:47;;;;;;;14.57;9.17;;;20.70;64.80;;;;;;5076986;28;20293;-44
2023/05/11 06:41:18;;;;;;;15.63;9.17;;;20.60;64.80;;;;;;5081468;28;20197;-44
2023/05/11 06:43:49;;;;;;;15.40;8.90;;;20.60;64.90;;;;;;5075051;28;20193;-44
2023/05/11 06:46:21;;;;;;;14.37;9.60;;;20.60;64.80;;;;;;5075201;28;20705;-43
2023/05/11 06:48:52;;;;;;;12.17;9.47;;;20.60;64.80;;;;;;5085900;28;20185;-43
2023/05/11 06:51:27;;;;;;;12.87;8.93;;;20.60;64.90;;;;;;5086407;28;20262;-43
2023/05/11 06:54:00;;;;;;;11.70;9.17;;;20.60;64.80;;;;;;5084003;28;20204;-44
2023/05/11 06:56:41;;;;;;;12.97;9.50;;;20.60;64.80;;;;;;5077922;28;20277;-44
2023/05/11 06:59:10;;;;;;;11.70;9.37;;;20.70;64.80;;;;;;5081129;28;20699;-44
2023/05/11 07:01:42;;;;;;;16.37;10.40;;;20.60;64.70;;;;;;5079565;28;20190;-44
2023/05/11 07:04:12;;;;;;;13.57;10.20;;;20.60;64.60;;;;;;5078252;28;20230;-43
2023/05/11 07:06:42;;;;;;;15.10;10.03;;;20.60;64.60;;;;;;5081900;28;20723;-44
2023/05/11 07:09:17;;;;;;;13.83;9.07;;;20.70;64.50;;;;;;5078509;28;20215;-46
2023/05/11 07:11:47;;;;;;;15.20;9.33;;;20.60;64.40;;;;;;5081645;28;20196;-44
2023/05/11 07:14:17;;;;;;;15.90;10.13;;;20.60;64.30;;;;;;5082631;28;20578;-44
2023/05/11 07:16:51;;;;;;;17.20;8.83;;;20.70;64.30;;;;;;5083735;28;20192;-44
2023/05/11 07:19:23;;;;;;;12.97;9.20;;;20.60;64.30;;;;;;5083761;28;20715;-44
2023/05/11 07:21:54;;;;;;;12.10;8.67;;;20.60;64.30;;;;;;5086428;28;20204;-44
2023/05/11 07:24:22;;;;;;;12.30;9.47;;;20.60;64.30;;;;;;5076486;28;20718;-44
2023/05/11 07:26:51;;;;;;;12.50;9.37;;;20.70;64.30;;;;;;5062651;28;20287;-44
2023/05/11 07:29:22;;;;;;;13.67;8.57;;;20.70;64.20;;;;;;5054580;28;20529;-44
2023/05/11 07:31:53;;;;;;;11.83;8.73;;;20.70;64.20;;;;;;5064493;28;20284;-43
2023/05/11 07:34:26;;;;;;;10.50;8.93;;;20.70;64.10;;;;;;5060322;28;20658;-43
2023/05/11 07:36:55;;;;;;;11.97;8.50;;;20.70;64.20;;;;;;5045345;28;20633;-44
2023/05/11 07:39:28;;;;;;;13.27;9.37;;;20.70;64.10;;;;;;5043769;28;20205;-44
2023/05/11 07:42:00;;;;;;;15.63;10.30;;;20.70;64.10;;;;;;5058769;28;20205;-44
2023/05/11 07:44:29;;;;;;;11.93;8.27;;;20.70;64.00;;;;;;5055034;28;20218;-44
2023/05/11 07:47:02;;;;;;;13.97;9.50;;;20.70;64.00;;;;;;5063119;28;20225;-43
2023/05/11 07:49:34;;;;;;;13.70;9.27;;;20.70;64.00;;;;;;5061066;28;20205;-44
2023/05/11 07:52:10;;;;;;;12.03;9.03;;;20.70;63.90;;;;;;5037114;28;20537;-44
2023/05/11 07:54:42;;;;;;;14.70;9.30;;;20.70;63.90;;;;;;5053233;28;20185;-44
2023/05/11 07:57:10;;;;;;;12.13;8.67;;;20.70;63.90;;;;;;5047394;28;20213;-44
2023/05/11 07:59:39;;;;;;;12.27;8.97;;;20.70;64.40;;;;;;5065266;28;20198;-43
2023/05/11 08:02:12;;;;;;;14.07;8.80;;;20.70;63.80;;;;;;5043360;28;20205;-43
2023/05/11 08:04:43;;;;;;;12.97;8.50;;;20.70;63.80;;;;;;5042548;28;20181;-43
2023/05/11 08:07:18;;;;;;;11.70;8.70;;;20.70;63.80;;;;;;5060403;28;20690;-43
2023/05/11 08:09:49;;;;;;;13.33;8.50;;;20.70;63.90;;;;;;5060904;28;20653;-43
2023/05/11 08:12:18;;;;;;;11.20;8.53;;;20.70;63.80;;;;;;5057627;28;20227;-44
2023/05/11 08:14:47;;;;;;;11.93;9.03;;;20.70;63.70;;;;;;5071322;28;20651;-44
2023/05/11 08:17:14;;;;;;;12.30;8.80;;;20.70;63.70;;;;;;5066489;28;20641;-44
2023/05/11 08:19:47;;;;;;;11.57;7.77;;;20.70;63.70;;;;;;5066429;28;20206;-44
2023/05/11 08:22:18;;;;;;;11.50;8.10;;;20.80;63.90;;;;;;5065408;28;20623;-44
2023/05/11 08:25:04;;;;;;;12.47;8.20;;;20.70;63.90;;;;;;5067551;28;20918;-43
2023/05/11 08:27:34;;;;;;;11.53;8.37;;;20.70;64.00;;;;;;5080356;28;20241;-43
2023/05/11 08:30:05;;;;;;;12.93;8.70;;;20.70;64.00;;;;;;5086678;28;20201;-44
2023/05/11 08:32:39;;;;;;;12.43;9.07;;;20.70;64.00;;;;;;5081944;28;20723;-44
2023/05/11 08:35:12;;;;;;;12.03;9.30;;;20.70;64.00;;;;;;5086298;28;20654;-44
2023/05/11 08:37:42;;;;;;;12.87;9.80;;;20.70;63.90;;;;;;5077217;28;20213;-44
2023/05/11 08:40:20;;;;;;;12.03;9.30;;;20.70;63.90;;;;;;5087825;28;20619;-43
2023/05/11 08:42:57;;;;;;;14.30;9.77;;;20.70;63.80;;;;;;5089760;28;20656;-43
2023/05/11 08:45:35;;;;;;;14.63;10.07;;;20.70;63.80;;;;;;5077777;28;20208;-44
2023/05/11 08:48:11;;;;;;;13.60;9.70;;;20.80;63.70;;;;;;5080715;28;20666;-44
2023/05/11 08:50:55;;;;;;;14.57;9.97;;;20.80;63.80;;;;;;5081389;28;20193;-43
2023/05/11 08:53:39;;;;;;;13.40;10.00;;;20.80;63.90;;;;;;5083517;28;20626;-44
2023/05/11 08:56:14;;;;;;;13.87;10.77;;;20.80;64.00;;;;;;5076435;28;20254;-44
2023/05/11 08:58:48;;;;;;;16.37;11.03;;;20.80;64.00;;;;;;5081717;28;20208;-44
2023/05/11 09:01:25;;;;;;;13.30;11.03;;;20.80;64.00;;;;;;5081646;28;20549;-44
2023/05/11 09:04:01;;;;;;;14.00;10.53;;;20.80;64.00;;;;;;5063359;28;20730;-43
2023/05/11 09:06:33;;;;;;;14.70;11.70;;;20.80;63.90;;;;;;5077531;28;20197;-43
2023/05/11 09:09:03;;;;;;;15.43;11.40;;;20.90;63.80;;;;;;5082412;28;20811;-43
2023/05/11 09:11:35;;;;;;;17.23;11.87;;;20.80;63.70;;;;;;5076109;28;20201;-43
2023/05/11 09:14:05;;;;;;;16.50;11.67;;;20.80;63.60;;;;;;5067129;28;20194;-44
2023/05/11 09:16:32;;;;;;;16.57;11.50;;;20.90;63.80;;;;;;5078192;28;20307;-44
2023/05/11 09:19:12;;;;;;;16.87;11.83;;;20.90;63.70;;;;;;5080924;28;20201;-44
2023/05/11 09:21:41;;;;;;;20.20;13.53;;;20.80;63.80;;;;;;5065011;28;20285;-43
2023/05/11 09:24:14;;;;;;;19.03;13.73;;;20.80;63.90;;;;;;5062987;28;20691;-43
2023/05/11 09:26:43;;;;;;;20.80;14.37;;;20.90;64.30;;;;;;5085943;28;20189;-44
2023/05/11 09:29:14;;;;;;;18.40;13.13;;;20.90;64.00;;;;;;5084693;28;20281;-44
2023/05/11 09:31:47;;;;;;;20.47;13.90;;;20.90;64.00;;;;;;5079297;28;20531;-44
2023/05/11 09:34:24;;;;;;;17.83;12.67;;;20.90;63.80;;;;;;5069491;28;20200;-44
2023/05/11 09:36:55;;;;;;;20.20;14.17;;;20.90;63.90;;;;;;5074970;28;20833;-44
2023/05/11 09:39:35;;;;;;;20.03;14.80;;;20.90;63.90;;;;;;5076743;28;20212;-44
2023/05/11 09:42:26;;;;;;;19.20;13.97;;;20.90;63.90;;;;;;5082606;28;20201;-44
2023/05/11 09:44:57;;;;;;;20.87;15.47;;;20.90;63.80;;;;;;5077780;28;20597;-43
2023/05/11 09:47:26;;;;;;;23.77;15.83;;;20.90;64.40;;;;;;5081360;28;20217;-44
2023/05/11 09:49:56;;;;;;;23.27;17.20;;;20.90;63.70;;;;;;5078623;28;20211;-44
2023/05/11 09:52:30;;;;;;;22.57;16.73;;;20.90;63.60;;;;;;5086074;28;20204;-43
2023/05/11 09:55:09;;;;;;;24.07;15.33;;;20.90;63.60;;;;;;5081493;28;20189;-44
2023/05/11 09:57:51;;;;;;;20.53;15.87;;;20.90;63.60;;;;;;5083218;28;20720;-44
2023/05/11 10:00:28;;;;;;;23.13;16.60;;;20.90;63.60;;;;;;5081514;28;20216;-43
2023/05/11 10:03:00;;;;;;;23.03;16.23;;;20.90;63.60;;;;;;5075864;28;20591;-42
2023/05/11 10:05:34;;;;;;;23.17;16.60;;;20.90;63.60;;;;;;5074635;28;20197;-42
2023/05/11 10:08:06;;;;;;;23.93;17.90;;;20.90;63.50;;;;;;5073195;28;20258;-42
2023/05/11 10:10:36;;;;;;;24.40;18.77;;;20.90;63.50;;;;;;5077654;28;20671;-43
2023/05/11 10:13:07;;;;;;;23.50;18.57;;;20.90;63.40;;;;;;5098724;28;20228;-42
2023/05/11 10:15:39;;;;;;;25.87;18.13;;;20.90;63.50;;;;;;5077924;28;20193;-44
2023/05/11 10:18:31;;;;;;;25.67;18.90;;;21.00;63.50;;;;;;5082180;28;20622;-42
2023/05/11 10:21:17;;;;;;;23.50;18.37;;;20.90;63.40;;;;;;5077635;28;20293;-44
2023/05/11 10:23:51;;;;;;;27.13;18.07;;;21.00;63.50;;;;;;5102165;28;20586;-44
2023/05/11 10:26:20;;;;;;;33.20;22.03;;;21.00;63.50;;;;;;5082390;28;20196;-44
2023/05/11 10:28:51;;;;;;;29.50;21.80;;;21.00;63.40;;;;;;5080343;28;20267;-44
2023/05/11 10:31:23;;;;;;;33.80;22.80;;;21.00;63.40;;;;;;5085633;28;20250;-44
2023/05/11 10:33:56;;;;;;;30.27;22.20;;;21.00;63.40;;;;;;5078798;28;20647;-45
2023/05/11 10:36:33;;;;;;;29.77;21.83;;;21.00;63.40;;;;;;5080134;28;20652;-43
2023/05/11 10:39:09;;;;;;;31.77;22.60;;;21.00;63.40;;;;;;5083807;28;20208;-43
2023/05/11 10:42:01;;;;;;;29.93;22.53;;;21.00;63.40;;;;;;5084884;28;20497;-43
2023/05/11 10:45:09;;;;;;;29.80;21.03;;;21.00;63.40;;;;;;5079218;28;20224;-43
2023/05/11 10:48:06;;;;;;;27.20;20.83;;;21.00;63.40;;;;;;5044743;28;20231;-43
2023/05/11 10:50:58;;;;;;;32.73;21.47;;;21.00;63.50;;;;;;5056863;28;20198;-43
2023/05/11 10:54:04;;;;;;;31.87;22.53;;;21.00;63.40;;;;;;5049773;28;20741;-43
2023/05/11 10:57:13;;;;;;;32.07;21.93;;;21.00;63.30;;;;;;5070894;28;20646;-43
2023/05/11 11:00:09;;;;;;;27.87;21.50;;;21.00;63.20;;;;;;5075553;28;20657;-43
2023/05/11 11:02:44;;;;;;;30.37;21.03;;;21.10;63.10;;;;;;5074603;28;20508;-44
2023/05/11 11:05:38;;;;;;;30.30;22.67;;;21.10;63.20;;;;;;5079359;28;20198;-43
2023/05/11 11:08:11;;;;;;;26.67;21.10;;;21.10;63.00;;;;;;5069400;28;20197;-43
2023/05/11 11:10:44;;;;;;;25.27;20.00;;;21.10;63.00;;;;;;5094906;28;20196;-43
2023/05/11 11:13:16;;;;;;;25.03;20.37;;;21.10;62.90;;;;;;5093069;28;20208;-43
2023/05/11 11:16:08;;;;;;;28.03;20.87;;;21.10;62.90;;;;;;5075422;28;20189;-44
2023/05/11 11:18:43;;;;;;;26.17;19.70;;;21.10;63.60;;;;;;5076870;28;20196;-42
2023/05/11 11:21:40;;;;;;;25.47;18.40;;;21.10;63.00;;;;;;5075222;28;20305;-44
2023/05/11 11:24:39;;;;;;;27.60;19.73;;;21.20;62.90;;;;;;5077721;28;20248;-44
2023/05/11 11:27:11;;;;;;;26.03;18.93;;;21.20;62.70;;;;;;5072431;28;20201;-44
2023/05/11 11:30:21;;;;;;;26.40;19.60;;;21.20;62.90;;;;;;5079202;28;20205;-44
2023/05/11 11:33:16;;;;;;;25.50;19.63;;;21.20;62.80;;;;;;5072561;28;20201;-44
2023/05/11 11:35:47;;;;;;;22.23;17.77;;;21.20;62.70;;;;;;5087699;28;20205;-44
2023/05/11 11:38:17;;;;;;;25.40;17.97;;;21.20;62.70;;;;;;5077234;28;20272;-44
2023/05/11 11:40:53;;;;;;;24.27;17.40;;;21.20;62.40;;;;;;5081584;28;20239;-44
2023/05/11 11:43:41;;;;;;;22.50;17.00;;;21.20;62.70;;;;;;5084170;28;20207;-44
2023/05/11 11:46:29;;;;;;;21.57;16.80;;;21.20;62.60;;;;;;5082239;28;20270;-44
2023/05/11 11:49:09;;;;;;;21.40;16.63;;;21.20;62.50;;;;;;5081389;28;20226;-44
2023/05/11 11:51:40;;;;;;;22.20;17.37;;;21.20;62.50;;;;;;5083069;28;20185;-43
2023/05/11 11:54:13;;;;;;;20.23;16.13;;;21.30;63.40;;;;;;5078237;28;20194;-44
2023/05/11 11:56:52;;;;;;;19.57;16.10;;;21.30;64.50;;;;;;5078187;28;20641;-45
2023/05/11 11:59:48;;;;;;;23.60;16.40;;;21.30;66.30;;;;;;5082960;28;20619;-43
2023/05/11 12:02:21;;;;;;;21.67;15.67;;;21.20;67.30;;;;;;5083914;28;20185;-42
2023/05/11 12:05:17;;;;;;;22.13;16.10;;;21.30;68.00;;;;;;5052897;28;20248;-44
2023/05/11 12:07:52;;;;;;;17.77;15.57;;;21.20;67.90;;;;;;5081967;28;20271;-45
2023/05/11 12:10:22;;;;;;;20.90;15.40;;;21.30;68.20;;;;;;5091782;28;20208;-43
2023/05/11 12:12:56;;;;;;;23.57;16.63;;;21.30;68.50;;;;;;5076491;28;20267;-45
2023/05/11 12:15:31;;;;;;;21.00;15.47;;;21.30;68.70;;;;;;5077813;28;20555;-43
2023/05/11 12:18:02;;;;;;;23.27;15.87;;;21.30;68.80;;;;;;5094029;28;20574;-43
2023/05/11 12:20:32;;;;;;;21.17;15.27;;;21.30;68.50;;;;;;5074624;28;20437;-44
2023/05/11 12:23:04;;;;;;;19.53;14.70;;;21.20;68.60;;;;;;5085829;28;20588;-44
2023/05/11 12:25:35;;;;;;;21.97;15.23;;;21.30;69.20;;;;;;5088216;28;20239;-43
2023/05/11 12:28:08;;;;;;;19.47;14.57;;;21.30;68.80;;;;;;5070024;28;20217;-43
2023/05/11 12:30:38;;;;;;;18.43;13.83;;;21.20;68.90;;;;;;5080448;28;20202;-44
2023/05/11 12:33:13;;;;;;;18.00;14.33;;;21.30;68.70;;;;;;5052970;28;20207;-44
2023/05/11 12:35:45;;;;;;;17.63;14.17;;;21.30;68.90;;;;;;5090223;28;20197;-44
2023/05/11 12:38:15;;;;;;;20.00;13.40;;;21.30;68.80;;;;;;5074791;28;21187;-44
2023/05/11 12:40:50;;;;;;;17.60;13.63;;;21.30;68.90;;;;;;5083735;28;20189;-44
2023/05/11 12:43:42;;;;;;;18.57;13.80;;;21.30;69.20;;;;;;5086076;28;20197;-44
2023/05/11 12:46:12;;;;;;;19.47;13.13;;;21.30;69.40;;;;;;5077912;28;20209;-44
2023/05/11 12:48:48;;;;;;;18.80;13.43;;;21.30;69.30;;;;;;5080327;28;20201;-45
2023/05/11 12:51:54;;;;;;;17.60;13.40;;;21.30;69.30;;;;;;5056049;28;20197;-44
2023/05/11 12:54:37;;;;;;;18.73;14.30;;;21.30;69.50;;;;;;5070517;28;20201;-44
2023/05/11 12:57:21;;;;;;;18.07;13.10;;;21.30;69.80;;;;;;5060614;28;20562;-44
2023/05/11 13:00:12;;;;;;;17.07;13.60;;;21.30;69.90;;;;;;5059619;28;20207;-45
2023/05/11 13:02:56;;;;;;;19.33;13.83;;;21.30;69.90;;;;;;5085590;28;20189;-44
2023/05/11 13:05:28;;;;;;;18.03;13.33;;;21.30;69.90;;;;;;5069757;28;20209;-43
2023/05/11 13:08:05;;;;;;;16.37;13.77;;;21.30;69.70;;;;;;5069340;28;20221;-44
2023/05/11 13:10:34;;;;;;;17.37;13.77;;;21.30;70.20;;;;;;5069723;28;20943;-44
2023/05/11 13:13:05;;;;;;;18.73;13.90;;;21.30;70.10;;;;;;5096457;28;20197;-44
2023/05/11 13:15:49;;;;;;;19.73;13.90;;;21.30;70.00;;;;;;5083676;28;20209;-44
2023/05/11 13:18:19;;;;;;;17.67;13.17;;;21.30;69.40;;;;;;5059717;28;20205;-44
2023/05/11 13:21:06;;;;;;;16.97;13.73;;;21.30;69.90;;;;;;5074995;28;20236;-43